createdAt,value
2023-01-13T07:23:17.473Z,95438.19
2023-01-13T07:25:44.317Z,95441.47
2023-01-13T07:28:11.170Z,95441.06
2023-01-13T07:30:38.640Z,95440.63
2023-01-13T07:33:05.516Z,95443.72
2023-01-13T07:35:32.397Z,95435.84
2023-01-13T07:37:59.272Z,95436.03
2023-01-13T07:40:26.134Z,95428.84
2023-01-13T07:43:11.594Z,95434.38
2023-01-13T07:45:38.483Z,95436.50
2023-01-13T07:48:05.608Z,95441.00
2023-01-13T07:50:32.570Z,95439.66
2023-01-13T07:53:00.124Z,95440.59
2023-01-13T07:55:27.021Z,95438.50
2023-01-13T07:57:53.949Z,95450.66
2023-01-13T08:00:21.425Z,95442.56
2023-01-13T08:02:48.372Z,95449.69
2023-01-13T08:05:18.590Z,95446.81
2023-01-13T08:07:45.708Z,95452.03
2023-01-13T08:10:12.602Z,95444.56
2023-01-13T08:12:57.997Z,95462.56
2023-01-13T08:15:24.908Z,95448.59
2023-01-13T08:17:54.691Z,95455.97
2023-01-13T08:20:21.772Z,95450.75
2023-01-13T08:22:48.646Z,95442.47
2023-01-13T08:25:15.517Z,95452.38
2023-01-13T08:27:42.552Z,95448.06
2023-01-13T08:30:11.604Z,95451.56
2023-01-13T08:32:38.469Z,95452.06
2023-01-13T08:35:05.677Z,95457.19
2023-01-13T08:37:32.663Z,95448.06
2023-01-13T08:39:59.698Z,95459.28
2023-01-13T08:42:33.081Z,95454.66
2023-01-13T08:44:59.956Z,95450.75
2023-01-13T08:47:29.926Z,95455.06
2023-01-13T08:49:56.736Z,95450.81
2023-01-13T08:52:24.271Z,95447.69
2023-01-13T08:54:51.223Z,95449.69
2023-01-13T08:57:21.474Z,95447.38
2023-01-13T08:59:48.721Z,95451.56
2023-01-13T09:02:21.702Z,95449.13
2023-01-13T09:04:49.234Z,95444.91
2023-01-13T09:07:16.880Z,95442.47
2023-01-13T09:09:43.865Z,95440.63
2023-01-13T09:12:34.084Z,95445.19
2023-01-13T09:15:02.145Z,95443.44
2023-01-13T09:17:29.068Z,95443.47
2023-01-13T09:19:55.934Z,95435.66
2023-01-13T09:22:27.068Z,95444.75
2023-01-13T09:24:55.341Z,95443.00
2023-01-13T09:27:23.158Z,95433.44
2023-01-13T09:29:50.442Z,95436.00
2023-01-13T09:32:17.411Z,95433.81
2023-01-13T09:35:02.620Z,95427.03
2023-01-13T09:37:32.642Z,95424.13
2023-01-13T09:39:59.631Z,95437.88
2023-01-13T09:43:07.915Z,95433.91
2023-01-13T09:45:44.055Z,95439.16
2023-01-13T09:48:21.123Z,95437.53
2023-01-13T09:51:03.001Z,95433.47
2023-01-13T09:53:37.167Z,95429.25
2023-01-13T09:56:04.447Z,95426.47
2023-01-13T09:58:35.419Z,95425.75
2023-01-13T10:01:52.827Z,95417.13
2023-01-13T10:04:20.159Z,95415.72
2023-01-13T10:07:00.727Z,95423.66
2023-01-13T10:09:49.935Z,95405.25
2023-01-13T10:12:45.058Z,95407.00
2023-01-13T10:15:23.475Z,95417.34
2023-01-13T10:17:53.231Z,95413.16
2023-01-13T10:20:29.509Z,95412.78
2023-01-13T10:23:18.898Z,95409.41
2023-01-13T10:26:04.381Z,95404.97
2023-01-13T10:28:31.582Z,95402.03
2023-01-13T10:30:59.773Z,95403.44
2023-01-13T10:33:30.731Z,95390.47
2023-01-13T10:36:04.789Z,95394.91
2023-01-13T10:38:34.779Z,95389.78
2023-01-13T10:41:16.488Z,95393.03
2023-01-13T10:43:59.008Z,95390.91
2023-01-13T10:46:26.184Z,95386.47
2023-01-13T10:48:58.449Z,95389.72
2023-01-13T10:51:34.494Z,95386.47
2023-01-13T10:54:14.508Z,95374.56
2023-01-13T10:56:45.140Z,95378.53
2023-01-13T10:59:27.016Z,95379.91
2023-01-13T11:01:58.710Z,95380.63
2023-01-13T11:04:40.858Z,95382.44
2023-01-13T11:07:28.343Z,95372.75
2023-01-13T11:10:24.599Z,95380.44
2023-01-13T11:13:10.028Z,95371.50
2023-01-13T11:15:47.504Z,95376.75
2023-01-13T11:18:36.061Z,95371.97
2023-01-13T11:21:08.291Z,95368.13
2023-01-13T11:23:47.304Z,95365.34
2023-01-13T11:26:27.957Z,95364.84
2023-01-13T11:29:10.654Z,95356.59
2023-01-13T11:31:46.295Z,95359.72
2023-01-13T11:34:31.203Z,95368.13
2023-01-13T11:37:01.047Z,95363.09
2023-01-13T11:39:49.100Z,95363.22
2023-01-13T11:42:28.098Z,95353.22
2023-01-13T11:45:13.292Z,95352.03
2023-01-13T11:47:40.147Z,95348.91
2023-01-13T11:50:16.330Z,95356.00
2023-01-13T11:52:45.968Z,95357.63
2023-01-13T11:55:24.916Z,95352.50
2023-01-13T11:58:05.719Z,95353.31
2023-01-13T12:00:56.720Z,95358.44
2023-01-13T12:03:41.853Z,95351.31
2023-01-13T12:06:20.924Z,95346.66
2023-01-13T12:09:22.647Z,95333.56
2023-01-13T12:12:27.885Z,95333.19
2023-01-13T12:15:03.110Z,95342.88
2023-01-13T12:17:39.725Z,95345.84
2023-01-13T12:20:18.815Z,95339.88
2023-01-13T12:22:49.749Z,95331.81
2023-01-13T12:25:50.796Z,95339.25
2023-01-13T12:28:25.435Z,95339.38
2023-01-13T12:30:59.361Z,95337.34
2023-01-13T12:33:46.790Z,95339.88
2023-01-13T12:36:50.398Z,95328.91
2023-01-13T12:39:35.692Z,95333.06
2023-01-13T12:42:36.189Z,95338.53
2023-01-13T12:45:12.017Z,95332.22
2023-01-13T12:47:43.965Z,95337.13
2023-01-13T12:50:22.890Z,95343.78
2023-01-13T12:52:51.844Z,95340.03
2023-01-13T12:55:26.897Z,95336.28
2023-01-13T12:58:15.722Z,95340.59
2023-01-13T13:00:44.416Z,95337.22
2023-01-13T13:03:11.327Z,95343.66
2023-01-13T13:06:04.373Z,95350.06
2023-01-13T13:08:44.584Z,95347.38
2023-01-13T13:11:40.500Z,95342.47
2023-01-13T13:14:12.756Z,95342.97
2023-01-13T13:16:48.964Z,95344.16
2023-01-13T13:19:18.962Z,95348.34
2023-01-13T13:22:14.200Z,95356.88
2023-01-13T13:24:44.070Z,95355.63
2023-01-13T13:27:24.267Z,95354.00
2023-01-13T13:30:02.233Z,95354.53
2023-01-13T13:32:56.197Z,95358.63
2023-01-13T13:35:28.824Z,95362.56
2023-01-13T13:38:21.609Z,95364.00
2023-01-13T13:41:07.253Z,95362.25
2023-01-13T13:43:59.662Z,95360.38
2023-01-13T13:46:47.599Z,95369.47
2023-01-13T13:49:15.454Z,95364.44
2023-01-13T13:51:50.555Z,95357.22
2023-01-13T13:54:21.313Z,95361.31
2023-01-13T13:56:50.357Z,95359.13
2023-01-13T13:59:22.805Z,95357.91
2023-01-13T14:02:02.351Z,95361.06
2023-01-13T14:04:37.300Z,95360.25
2023-01-13T14:07:18.613Z,95362.81
2023-01-13T14:09:48.835Z,95363.50
2023-01-13T14:12:19.038Z,95352.31
2023-01-13T14:14:47.987Z,95358.38
2023-01-13T14:17:28.058Z,95367.47
2023-01-13T14:20:08.180Z,95357.91
2023-01-13T14:22:35.329Z,95361.16
2023-01-13T14:25:02.349Z,95356.25
2023-01-13T14:27:30.632Z,95363.03
2023-01-13T14:30:00.628Z,95354.06
2023-01-13T14:32:35.151Z,95359.56
2023-01-13T14:35:02.065Z,95370.75
